Weather at Mataiva Airport

Public forecast

Using degrees Celsius for public forecast. Weather courtesy of forecast.io.

Closest aviation weather report (METAR) to Mataiva Airport

Closest report is Faa'a International Airport, 169.2 nm (313.4 km) SSW. Retrieved 2021/08/02 19:00 UTC (15 minutes ago):

NTAA 021900Z 06013KT 9999 FEW026 27/20 Q1017 NOSIG

Closest aviation forecast (TAF) to Mataiva Airport

Closest forecast is Faa'a International Airport, 169.2 nm (313.4 km) SSW. Retrieved 2021/08/02 18:06 UTC (1 hour ago):

TAF NTAA 021700Z 0218/0324 07010KT 9999 FEW025 BECMG 0303/0306 VRB05KT PROB30 TEMPO 0315/0319 3000 SHRA FEW018TCU BKN040